sensor_id;sensor_type;location;lat;lon;timestamp;P1;durP1;ratioP1;P2;durP2;ratioP2
4186;SDS011;2107;52.306;10.484;2023-07-30T00:01:03;0.20;;;0.20;;
4186;SDS011;2107;52.306;10.484;2023-07-30T00:03:29;0.10;;;0.10;;
4186;SDS011;2107;52.306;10.484;2023-07-30T00:05:56;0.20;;;0.20;;
4186;SDS011;2107;52.306;10.484;2023-07-30T00:08:24;0.20;;;0.20;;
4186;SDS011;2107;52.306;10.484;2023-07-30T00:10:51;0.20;;;0.20;;
4186;SDS011;2107;52.306;10.484;2023-07-30T00:13:18;0.10;;;0.10;;
4186;SDS011;2107;52.306;10.484;2023-07-30T00:15:45;0.10;;;0.10;;
4186;SDS011;2107;52.306;10.484;2023-07-30T00:18:13;0.10;;;0.10;;
4186;SDS011;2107;52.306;10.484;2023-07-30T00:20:40;0.10;;;0.10;;
4186;SDS011;2107;52.306;10.484;2023-07-30T00:23:07;0.10;;;0.10;;
4186;SDS011;2107;52.306;10.484;2023-07-30T00:25:35;0.10;;;0.10;;
4186;SDS011;2107;52.306;10.484;2023-07-30T00:28:02;0.10;;;0.10;;
4186;SDS011;2107;52.306;10.484;2023-07-30T00:30:29;0.00;;;0.00;;
4186;SDS011;2107;52.306;10.484;2023-07-30T00:32:56;0.10;;;0.10;;
4186;SDS011;2107;52.306;10.484;2023-07-30T00:35:23;0.10;;;0.10;;
4186;SDS011;2107;52.306;10.484;2023-07-30T00:37:49;0.10;;;0.10;;
4186;SDS011;2107;52.306;10.484;2023-07-30T00:40:17;0.10;;;0.10;;
4186;SDS011;2107;52.306;10.484;2023-07-30T00:42:45;0.00;;;0.00;;
4186;SDS011;2107;52.306;10.484;2023-07-30T00:45:12;0.10;;;0.10;;
4186;SDS011;2107;52.306;10.484;2023-07-30T00:47:39;0.00;;;0.00;;
4186;SDS011;2107;52.306;10.484;2023-07-30T00:50:07;0.10;;;0.10;;
4186;SDS011;2107;52.306;10.484;2023-07-30T00:52:36;0.00;;;0.00;;
4186;SDS011;2107;52.306;10.484;2023-07-30T00:55:03;0.00;;;0.00;;
4186;SDS011;2107;52.306;10.484;2023-07-30T00:57:32;0.10;;;0.10;;
4186;SDS011;2107;52.306;10.484;2023-07-30T01:00:03;0.10;;;0.10;;
4186;SDS011;2107;52.306;10.484;2023-07-30T01:02:33;0.10;;;0.10;;
4186;SDS011;2107;52.306;10.484;2023-07-30T01:05:01;0.10;;;0.10;;
4186;SDS011;2107;52.306;10.484;2023-07-30T01:07:29;0.00;;;0.00;;
4186;SDS011;2107;52.306;10.484;2023-07-30T01:09:56;0.03;;;0.03;;
4186;SDS011;2107;52.306;10.484;2023-07-30T01:12:23;0.03;;;0.03;;
4186;SDS011;2107;52.306;10.484;2023-07-30T01:14:51;0.00;;;0.00;;
4186;SDS011;2107;52.306;10.484;2023-07-30T01:17:21;0.00;;;0.00;;
4186;SDS011;2107;52.306;10.484;2023-07-30T01:19:48;0.00;;;0.00;;
4186;SDS011;2107;52.306;10.484;2023-07-30T01:22:17;0.00;;;0.00;;
4186;SDS011;2107;52.306;10.484;2023-07-30T01:24:43;0.10;;;0.10;;
4186;SDS011;2107;52.306;10.484;2023-07-30T01:27:12;0.00;;;0.00;;
4186;SDS011;2107;52.306;10.484;2023-07-30T01:29:43;0.00;;;0.00;;
4186;SDS011;2107;52.306;10.484;2023-07-30T01:32:15;0.00;;;0.00;;
4186;SDS011;2107;52.306;10.484;2023-07-30T01:34:46;0.00;;;0.00;;
4186;SDS011;2107;52.306;10.484;2023-07-30T01:37:17;0.00;;;0.00;;
4186;SDS011;2107;52.306;10.484;2023-07-30T01:39:44;0.00;;;0.00;;
4186;SDS011;2107;52.306;10.484;2023-07-30T01:42:14;0.10;;;0.10;;
4186;SDS011;2107;52.306;10.484;2023-07-30T01:44:41;0.00;;;0.00;;
4186;SDS011;2107;52.306;10.484;2023-07-30T01:47:07;0.00;;;0.00;;
4186;SDS011;2107;52.306;10.484;2023-07-30T01:49:34;0.00;;;0.00;;
4186;SDS011;2107;52.306;10.484;2023-07-30T01:52:01;0.10;;;0.10;;
4186;SDS011;2107;52.306;10.484;2023-07-30T01:54:29;0.00;;;0.00;;
4186;SDS011;2107;52.306;10.484;2023-07-30T01:56:56;0.10;;;0.10;;
4186;SDS011;2107;52.306;10.484;2023-07-30T01:59:23;0.00;;;0.00;;
4186;SDS011;2107;52.306;10.484;2023-07-30T02:01:50;0.10;;;0.10;;
4186;SDS011;2107;52.306;10.484;2023-07-30T02:04:17;0.10;;;0.10;;
4186;SDS011;2107;52.306;10.484;2023-07-30T02:06:44;0.10;;;0.10;;
4186;SDS011;2107;52.306;10.484;2023-07-30T02:09:10;0.10;;;0.10;;
4186;SDS011;2107;52.306;10.484;2023-07-30T02:11:39;0.10;;;0.10;;
4186;SDS011;2107;52.306;10.484;2023-07-30T02:14:05;0.10;;;0.10;;
4186;SDS011;2107;52.306;10.484;2023-07-30T02:16:36;0.10;;;0.10;;
4186;SDS011;2107;52.306;10.484;2023-07-30T02:19:03;0.10;;;0.10;;
4186;SDS011;2107;52.306;10.484;2023-07-30T02:21:30;0.10;;;0.10;;
4186;SDS011;2107;52.306;10.484;2023-07-30T02:23:58;0.10;;;0.10;;
4186;SDS011;2107;52.306;10.484;2023-07-30T02:26:25;0.10;;;0.10;;
4186;SDS011;2107;52.306;10.484;2023-07-30T02:28:53;0.10;;;0.10;;
4186;SDS011;2107;52.306;10.484;2023-07-30T02:31:20;0.10;;;0.10;;
4186;SDS011;2107;52.306;10.484;2023-07-30T02:33:47;0.10;;;0.10;;
4186;SDS011;2107;52.306;10.484;2023-07-30T02:36:14;0.10;;;0.10;;
4186;SDS011;2107;52.306;10.484;2023-07-30T02:38:40;0.10;;;0.10;;
4186;SDS011;2107;52.306;10.484;2023-07-30T02:41:07;0.10;;;0.10;;
4186;SDS011;2107;52.306;10.484;2023-07-30T02:43:34;0.10;;;0.10;;
4186;SDS011;2107;52.306;10.484;2023-07-30T02:46:02;0.10;;;0.10;;
4186;SDS011;2107;52.306;10.484;2023-07-30T02:48:29;0.10;;;0.10;;
4186;SDS011;2107;52.306;10.484;2023-07-30T02:50:56;0.10;;;0.10;;
4186;SDS011;2107;52.306;10.484;2023-07-30T02:53:23;0.00;;;0.00;;
4186;SDS011;2107;52.306;10.484;2023-07-30T02:55:50;0.10;;;0.10;;
4186;SDS011;2107;52.306;10.484;2023-07-30T02:58:17;0.10;;;0.10;;
4186;SDS011;2107;52.306;10.484;2023-07-30T03:00:44;0.00;;;0.00;;
4186;SDS011;2107;52.306;10.484;2023-07-30T03:03:12;0.00;;;0.00;;
4186;SDS011;2107;52.306;10.484;2023-07-30T03:05:41;0.00;;;0.00;;
4186;SDS011;2107;52.306;10.484;2023-07-30T03:08:08;0.00;;;0.00;;
4186;SDS011;2107;52.306;10.484;2023-07-30T03:10:35;0.00;;;0.00;;
4186;SDS011;2107;52.306;10.484;2023-07-30T03:13:02;0.00;;;0.00;;
4186;SDS011;2107;52.306;10.484;2023-07-30T03:15:29;0.00;;;0.00;;
4186;SDS011;2107;52.306;10.484;2023-07-30T03:17:56;0.00;;;0.00;;
4186;SDS011;2107;52.306;10.484;2023-07-30T03:20:24;0.00;;;0.00;;
4186;SDS011;2107;52.306;10.484;2023-07-30T03:22:51;0.00;;;0.00;;
4186;SDS011;2107;52.306;10.484;2023-07-30T03:25:18;0.00;;;0.00;;
4186;SDS011;2107;52.306;10.484;2023-07-30T03:27:45;0.00;;;0.00;;
4186;SDS011;2107;52.306;10.484;2023-07-30T03:30:12;0.00;;;0.00;;
4186;SDS011;2107;52.306;10.484;2023-07-30T03:32:39;0.00;;;0.00;;
4186;SDS011;2107;52.306;10.484;2023-07-30T03:35:06;0.00;;;0.00;;
4186;SDS011;2107;52.306;10.484;2023-07-30T03:37:35;0.00;;;0.00;;
4186;SDS011;2107;52.306;10.484;2023-07-30T03:40:02;0.00;;;0.00;;
4186;SDS011;2107;52.306;10.484;2023-07-30T03:42:29;0.00;;;0.00;;
4186;SDS011;2107;52.306;10.484;2023-07-30T03:44:56;0.00;;;0.00;;
4186;SDS011;2107;52.306;10.484;2023-07-30T03:47:23;0.00;;;0.00;;
4186;SDS011;2107;52.306;10.484;2023-07-30T03:49:49;0.00;;;0.00;;
4186;SDS011;2107;52.306;10.484;2023-07-30T03:52:16;0.00;;;0.00;;
4186;SDS011;2107;52.306;10.484;2023-07-30T03:54:44;0.00;;;0.00;;
4186;SDS011;2107;52.306;10.484;2023-07-30T03:57:11;0.00;;;0.00;;
4186;SDS011;2107;52.306;10.484;2023-07-30T03:59:38;0.00;;;0.00;;
4186;SDS011;2107;52.306;10.484;2023-07-30T04:02:05;0.10;;;0.10;;
4186;SDS011;2107;52.306;10.484;2023-07-30T04:04:32;0.10;;;0.10;;
4186;SDS011;2107;52.306;10.484;2023-07-30T04:06:58;0.10;;;0.10;;
4186;SDS011;2107;52.306;10.484;2023-07-30T04:09:25;0.20;;;0.20;;
4186;SDS011;2107;52.306;10.484;2023-07-30T04:11:54;0.10;;;0.10;;
4186;SDS011;2107;52.306;10.484;2023-07-30T04:14:20;0.20;;;0.20;;
4186;SDS011;2107;52.306;10.484;2023-07-30T04:16:47;0.20;;;0.20;;
4186;SDS011;2107;52.306;10.484;2023-07-30T04:19:14;0.20;;;0.20;;
4186;SDS011;2107;52.306;10.484;2023-07-30T04:21:41;0.30;;;0.30;;
4186;SDS011;2107;52.306;10.484;2023-07-30T04:24:10;0.30;;;0.30;;
4186;SDS011;2107;52.306;10.484;2023-07-30T04:26:37;0.20;;;0.20;;
4186;SDS011;2107;52.306;10.484;2023-07-30T04:29:05;0.30;;;0.30;;
4186;SDS011;2107;52.306;10.484;2023-07-30T04:31:32;0.30;;;0.30;;
4186;SDS011;2107;52.306;10.484;2023-07-30T04:33:59;0.30;;;0.30;;
4186;SDS011;2107;52.306;10.484;2023-07-30T04:36:26;0.30;;;0.30;;
4186;SDS011;2107;52.306;10.484;2023-07-30T04:38:53;0.30;;;0.30;;
4186;SDS011;2107;52.306;10.484;2023-07-30T04:41:20;0.30;;;0.30;;
4186;SDS011;2107;52.306;10.484;2023-07-30T04:43:47;0.30;;;0.30;;
4186;SDS011;2107;52.306;10.484;2023-07-30T04:46:15;0.20;;;0.20;;
4186;SDS011;2107;52.306;10.484;2023-07-30T04:48:42;0.30;;;0.30;;
4186;SDS011;2107;52.306;10.484;2023-07-30T04:51:09;0.30;;;0.30;;
4186;SDS011;2107;52.306;10.484;2023-07-30T04:53:36;0.30;;;0.30;;
4186;SDS011;2107;52.306;10.484;2023-07-30T04:56:03;0.23;;;0.23;;
4186;SDS011;2107;52.306;10.484;2023-07-30T04:58:29;0.23;;;0.23;;
4186;SDS011;2107;52.306;10.484;2023-07-30T05:00:56;0.30;;;0.30;;
4186;SDS011;2107;52.306;10.484;2023-07-30T05:03:24;0.30;;;0.30;;
4186;SDS011;2107;52.306;10.484;2023-07-30T05:05:51;0.30;;;0.30;;
4186;SDS011;2107;52.306;10.484;2023-07-30T05:08:18;0.30;;;0.30;;
4186;SDS011;2107;52.306;10.484;2023-07-30T05:10:45;0.40;;;0.40;;
4186;SDS011;2107;52.306;10.484;2023-07-30T05:13:12;0.40;;;0.40;;
4186;SDS011;2107;52.306;10.484;2023-07-30T05:15:39;0.33;;;0.33;;
4186;SDS011;2107;52.306;10.484;2023-07-30T05:18:05;0.30;;;0.30;;
4186;SDS011;2107;52.306;10.484;2023-07-30T05:20:34;0.40;;;0.40;;
4186;SDS011;2107;52.306;10.484;2023-07-30T05:23:00;0.30;;;0.30;;
4186;SDS011;2107;52.306;10.484;2023-07-30T05:25:27;0.20;;;0.20;;
4186;SDS011;2107;52.306;10.484;2023-07-30T05:27:54;0.20;;;0.20;;
4186;SDS011;2107;52.306;10.484;2023-07-30T05:30:21;0.20;;;0.20;;
4186;SDS011;2107;52.306;10.484;2023-07-30T05:32:48;0.20;;;0.20;;
4186;SDS011;2107;52.306;10.484;2023-07-30T05:35:15;0.20;;;0.20;;
4186;SDS011;2107;52.306;10.484;2023-07-30T05:37:45;0.20;;;0.20;;
4186;SDS011;2107;52.306;10.484;2023-07-30T05:40:12;0.20;;;0.20;;
4186;SDS011;2107;52.306;10.484;2023-07-30T05:42:38;0.30;;;0.30;;
4186;SDS011;2107;52.306;10.484;2023-07-30T05:45:06;0.30;;;0.30;;
4186;SDS011;2107;52.306;10.484;2023-07-30T05:47:34;0.20;;;0.20;;
4186;SDS011;2107;52.306;10.484;2023-07-30T05:50:01;0.30;;;0.30;;
4186;SDS011;2107;52.306;10.484;2023-07-30T05:52:28;0.23;;;0.23;;
4186;SDS011;2107;52.306;10.484;2023-07-30T05:54:57;0.20;;;0.20;;
4186;SDS011;2107;52.306;10.484;2023-07-30T05:57:23;0.20;;;0.20;;
4186;SDS011;2107;52.306;10.484;2023-07-30T05:59:50;0.20;;;0.20;;
4186;SDS011;2107;52.306;10.484;2023-07-30T06:02:17;0.20;;;0.20;;
4186;SDS011;2107;52.306;10.484;2023-07-30T06:04:44;0.20;;;0.20;;
4186;SDS011;2107;52.306;10.484;2023-07-30T06:07:11;0.20;;;0.20;;
4186;SDS011;2107;52.306;10.484;2023-07-30T06:09:38;0.20;;;0.20;;
4186;SDS011;2107;52.306;10.484;2023-07-30T06:12:06;0.20;;;0.20;;
4186;SDS011;2107;52.306;10.484;2023-07-30T06:14:34;0.20;;;0.20;;
4186;SDS011;2107;52.306;10.484;2023-07-30T06:17:00;0.20;;;0.20;;
4186;SDS011;2107;52.306;10.484;2023-07-30T06:19:27;0.20;;;0.20;;
4186;SDS011;2107;52.306;10.484;2023-07-30T06:21:54;0.20;;;0.20;;
4186;SDS011;2107;52.306;10.484;2023-07-30T06:24:21;0.20;;;0.20;;
4186;SDS011;2107;52.306;10.484;2023-07-30T06:26:48;0.20;;;0.20;;
4186;SDS011;2107;52.306;10.484;2023-07-30T06:29:16;0.20;;;0.20;;
4186;SDS011;2107;52.306;10.484;2023-07-30T06:31:43;0.10;;;0.10;;
4186;SDS011;2107;52.306;10.484;2023-07-30T06:34:10;0.10;;;0.10;;
4186;SDS011;2107;52.306;10.484;2023-07-30T06:36:36;0.20;;;0.20;;
4186;SDS011;2107;52.306;10.484;2023-07-30T06:39:03;0.20;;;0.20;;
4186;SDS011;2107;52.306;10.484;2023-07-30T06:41:30;0.20;;;0.20;;
4186;SDS011;2107;52.306;10.484;2023-07-30T06:43:57;0.20;;;0.20;;
4186;SDS011;2107;52.306;10.484;2023-07-30T06:46:25;0.20;;;0.20;;
4186;SDS011;2107;52.306;10.484;2023-07-30T06:48:52;0.20;;;0.20;;
4186;SDS011;2107;52.306;10.484;2023-07-30T06:51:19;0.20;;;0.20;;
4186;SDS011;2107;52.306;10.484;2023-07-30T06:53:46;0.20;;;0.20;;
4186;SDS011;2107;52.306;10.484;2023-07-30T06:56:13;0.20;;;0.20;;
4186;SDS011;2107;52.306;10.484;2023-07-30T06:58:40;0.20;;;0.20;;
4186;SDS011;2107;52.306;10.484;2023-07-30T07:01:07;0.20;;;0.20;;
4186;SDS011;2107;52.306;10.484;2023-07-30T07:03:35;0.20;;;0.20;;
4186;SDS011;2107;52.306;10.484;2023-07-30T07:06:02;0.20;;;0.20;;
4186;SDS011;2107;52.306;10.484;2023-07-30T07:08:29;0.20;;;0.20;;
4186;SDS011;2107;52.306;10.484;2023-07-30T07:10:56;0.20;;;0.20;;
4186;SDS011;2107;52.306;10.484;2023-07-30T07:13:22;0.20;;;0.20;;
4186;SDS011;2107;52.306;10.484;2023-07-30T07:15:49;0.20;;;0.20;;
4186;SDS011;2107;52.306;10.484;2023-07-30T07:18:17;0.20;;;0.20;;
4186;SDS011;2107;52.306;10.484;2023-07-30T07:20:45;0.20;;;0.20;;
4186;SDS011;2107;52.306;10.484;2023-07-30T07:23:12;0.20;;;0.20;;
4186;SDS011;2107;52.306;10.484;2023-07-30T07:25:39;0.20;;;0.20;;
4186;SDS011;2107;52.306;10.484;2023-07-30T07:28:06;0.20;;;0.20;;
4186;SDS011;2107;52.306;10.484;2023-07-30T07:30:34;0.20;;;0.20;;
4186;SDS011;2107;52.306;10.484;2023-07-30T07:33:01;0.20;;;0.20;;
4186;SDS011;2107;52.306;10.484;2023-07-30T07:35:28;0.20;;;0.20;;
4186;SDS011;2107;52.306;10.484;2023-07-30T07:37:57;0.20;;;0.20;;
4186;SDS011;2107;52.306;10.484;2023-07-30T07:40:23;0.20;;;0.20;;
4186;SDS011;2107;52.306;10.484;2023-07-30T07:42:50;0.30;;;0.30;;
4186;SDS011;2107;52.306;10.484;2023-07-30T07:45:17;0.20;;;0.20;;
4186;SDS011;2107;52.306;10.484;2023-07-30T07:47:44;0.30;;;0.30;;
4186;SDS011;2107;52.306;10.484;2023-07-30T07:50:11;0.20;;;0.20;;
4186;SDS011;2107;52.306;10.484;2023-07-30T07:52:38;0.20;;;0.20;;
4186;SDS011;2107;52.306;10.484;2023-07-30T07:55:07;0.30;;;0.30;;
4186;SDS011;2107;52.306;10.484;2023-07-30T07:57:34;0.20;;;0.20;;
4186;SDS011;2107;52.306;10.484;2023-07-30T08:00:01;0.30;;;0.30;;
4186;SDS011;2107;52.306;10.484;2023-07-30T08:02:30;0.30;;;0.30;;
4186;SDS011;2107;52.306;10.484;2023-07-30T08:04:57;0.30;;;0.30;;
4186;SDS011;2107;52.306;10.484;2023-07-30T08:07:24;0.20;;;0.20;;
4186;SDS011;2107;52.306;10.484;2023-07-30T08:09:50;0.30;;;0.30;;
4186;SDS011;2107;52.306;10.484;2023-07-30T08:12:20;0.30;;;0.30;;
4186;SDS011;2107;52.306;10.484;2023-07-30T08:14:47;0.30;;;0.30;;
4186;SDS011;2107;52.306;10.484;2023-07-30T08:17:14;0.30;;;0.30;;
4186;SDS011;2107;52.306;10.484;2023-07-30T08:19:41;0.20;;;0.20;;
4186;SDS011;2107;52.306;10.484;2023-07-30T08:22:08;0.30;;;0.30;;
4186;SDS011;2107;52.306;10.484;2023-07-30T08:24:36;0.30;;;0.30;;
4186;SDS011;2107;52.306;10.484;2023-07-30T08:27:06;0.20;;;0.20;;
4186;SDS011;2107;52.306;10.484;2023-07-30T08:29:36;0.30;;;0.30;;
4186;SDS011;2107;52.306;10.484;2023-07-30T08:32:03;0.20;;;0.20;;
4186;SDS011;2107;52.306;10.484;2023-07-30T08:34:30;0.30;;;0.30;;
4186;SDS011;2107;52.306;10.484;2023-07-30T08:36:58;0.20;;;0.20;;
4186;SDS011;2107;52.306;10.484;2023-07-30T08:39:25;0.20;;;0.20;;
4186;SDS011;2107;52.306;10.484;2023-07-30T08:41:53;0.20;;;0.20;;
4186;SDS011;2107;52.306;10.484;2023-07-30T08:44:21;0.20;;;0.20;;
4186;SDS011;2107;52.306;10.484;2023-07-30T08:46:50;0.20;;;0.20;;
4186;SDS011;2107;52.306;10.484;2023-07-30T08:49:16;0.20;;;0.20;;
4186;SDS011;2107;52.306;10.484;2023-07-30T08:51:43;0.23;;;0.23;;
4186;SDS011;2107;52.306;10.484;2023-07-30T08:54:12;0.20;;;0.20;;
4186;SDS011;2107;52.306;10.484;2023-07-30T08:56:39;0.20;;;0.20;;
4186;SDS011;2107;52.306;10.484;2023-07-30T08:59:08;0.20;;;0.20;;
4186;SDS011;2107;52.306;10.484;2023-07-30T09:01:37;0.20;;;0.20;;
4186;SDS011;2107;52.306;10.484;2023-07-30T09:04:07;0.20;;;0.20;;
4186;SDS011;2107;52.306;10.484;2023-07-30T09:06:34;0.20;;;0.20;;
4186;SDS011;2107;52.306;10.484;2023-07-30T09:09:01;0.30;;;0.30;;
4186;SDS011;2107;52.306;10.484;2023-07-30T09:11:29;0.20;;;0.20;;
4186;SDS011;2107;52.306;10.484;2023-07-30T09:13:56;0.20;;;0.20;;
4186;SDS011;2107;52.306;10.484;2023-07-30T09:16:24;0.30;;;0.30;;
4186;SDS011;2107;52.306;10.484;2023-07-30T09:18:52;0.10;;;0.10;;
4186;SDS011;2107;52.306;10.484;2023-07-30T09:21:22;0.30;;;0.30;;
4186;SDS011;2107;52.306;10.484;2023-07-30T09:23:56;0.20;;;0.20;;
4186;SDS011;2107;52.306;10.484;2023-07-30T09:26:23;0.20;;;0.20;;
4186;SDS011;2107;52.306;10.484;2023-07-30T09:28:49;0.20;;;0.20;;
4186;SDS011;2107;52.306;10.484;2023-07-30T09:31:16;0.20;;;0.20;;
4186;SDS011;2107;52.306;10.484;2023-07-30T09:33:43;0.20;;;0.20;;
4186;SDS011;2107;52.306;10.484;2023-07-30T09:36:10;0.20;;;0.20;;
4186;SDS011;2107;52.306;10.484;2023-07-30T09:38:39;0.20;;;0.20;;
4186;SDS011;2107;52.306;10.484;2023-07-30T09:41:07;0.30;;;0.30;;
4186;SDS011;2107;52.306;10.484;2023-07-30T09:43:36;0.30;;;0.30;;
4186;SDS011;2107;52.306;10.484;2023-07-30T09:46:03;0.30;;;0.30;;
4186;SDS011;2107;52.306;10.484;2023-07-30T09:48:31;0.30;;;0.30;;
4186;SDS011;2107;52.306;10.484;2023-07-30T09:50:59;0.30;;;0.30;;
4186;SDS011;2107;52.306;10.484;2023-07-30T09:53:28;0.30;;;0.30;;
4186;SDS011;2107;52.306;10.484;2023-07-30T09:56:00;0.20;;;0.20;;
4186;SDS011;2107;52.306;10.484;2023-07-30T09:58:27;0.30;;;0.30;;
4186;SDS011;2107;52.306;10.484;2023-07-30T10:00:55;0.30;;;0.30;;
4186;SDS011;2107;52.306;10.484;2023-07-30T10:03:24;0.30;;;0.30;;
4186;SDS011;2107;52.306;10.484;2023-07-30T10:05:51;0.30;;;0.30;;
4186;SDS011;2107;52.306;10.484;2023-07-30T10:08:21;0.37;;;0.37;;
4186;SDS011;2107;52.306;10.484;2023-07-30T10:10:51;0.40;;;0.40;;
4186;SDS011;2107;52.306;10.484;2023-07-30T10:13:21;0.30;;;0.30;;
4186;SDS011;2107;52.306;10.484;2023-07-30T10:15:49;0.20;;;0.20;;
4186;SDS011;2107;52.306;10.484;2023-07-30T10:18:17;0.30;;;0.30;;
4186;SDS011;2107;52.306;10.484;2023-07-30T10:20:45;0.30;;;0.30;;
4186;SDS011;2107;52.306;10.484;2023-07-30T10:23:19;0.20;;;0.20;;
4186;SDS011;2107;52.306;10.484;2023-07-30T10:25:46;0.33;;;0.33;;
4186;SDS011;2107;52.306;10.484;2023-07-30T10:31:03;0.40;;;0.40;;
4186;SDS011;2107;52.306;10.484;2023-07-30T10:33:46;0.33;;;0.33;;
4186;SDS011;2107;52.306;10.484;2023-07-30T10:36:13;0.50;;;0.50;;
4186;SDS011;2107;52.306;10.484;2023-07-30T10:38:42;0.43;;;0.43;;
4186;SDS011;2107;52.306;10.484;2023-07-30T10:41:12;0.50;;;0.50;;
4186;SDS011;2107;52.306;10.484;2023-07-30T10:43:43;0.53;;;0.53;;
4186;SDS011;2107;52.306;10.484;2023-07-30T10:46:12;0.40;;;0.40;;
4186;SDS011;2107;52.306;10.484;2023-07-30T10:48:41;0.40;;;0.40;;
4186;SDS011;2107;52.306;10.484;2023-07-30T10:51:10;0.40;;;0.40;;
4186;SDS011;2107;52.306;10.484;2023-07-30T10:53:37;0.30;;;0.30;;
4186;SDS011;2107;52.306;10.484;2023-07-30T10:56:05;0.60;;;0.60;;
4186;SDS011;2107;52.306;10.484;2023-07-30T10:58:34;0.53;;;0.53;;
4186;SDS011;2107;52.306;10.484;2023-07-30T11:01:03;0.60;;;0.60;;
4186;SDS011;2107;52.306;10.484;2023-07-30T11:03:31;0.33;;;0.33;;
4186;SDS011;2107;52.306;10.484;2023-07-30T11:05:58;0.30;;;0.30;;
4186;SDS011;2107;52.306;10.484;2023-07-30T11:08:32;0.40;;;0.40;;
4186;SDS011;2107;52.306;10.484;2023-07-30T11:11:01;0.33;;;0.33;;
4186;SDS011;2107;52.306;10.484;2023-07-30T11:13:28;0.40;;;0.40;;
4186;SDS011;2107;52.306;10.484;2023-07-30T11:15:55;0.30;;;0.30;;
4186;SDS011;2107;52.306;10.484;2023-07-30T11:18:24;0.30;;;0.30;;
4186;SDS011;2107;52.306;10.484;2023-07-30T11:20:50;0.40;;;0.40;;
4186;SDS011;2107;52.306;10.484;2023-07-30T11:23:19;0.40;;;0.40;;
4186;SDS011;2107;52.306;10.484;2023-07-30T11:25:47;0.43;;;0.43;;
4186;SDS011;2107;52.306;10.484;2023-07-30T11:28:15;0.50;;;0.50;;
4186;SDS011;2107;52.306;10.484;2023-07-30T11:30:54;0.60;;;0.60;;
4186;SDS011;2107;52.306;10.484;2023-07-30T11:33:25;0.50;;;0.50;;
4186;SDS011;2107;52.306;10.484;2023-07-30T11:35:52;0.40;;;0.40;;
4186;SDS011;2107;52.306;10.484;2023-07-30T11:38:20;0.50;;;0.50;;
4186;SDS011;2107;52.306;10.484;2023-07-30T11:40:47;0.40;;;0.40;;
4186;SDS011;2107;52.306;10.484;2023-07-30T11:43:14;0.50;;;0.50;;
4186;SDS011;2107;52.306;10.484;2023-07-30T11:45:41;0.50;;;0.50;;
4186;SDS011;2107;52.306;10.484;2023-07-30T11:48:08;0.50;;;0.50;;
4186;SDS011;2107;52.306;10.484;2023-07-30T11:50:47;0.43;;;0.43;;
4186;SDS011;2107;52.306;10.484;2023-07-30T11:53:17;0.50;;;0.50;;
4186;SDS011;2107;52.306;10.484;2023-07-30T11:55:44;0.53;;;0.53;;
4186;SDS011;2107;52.306;10.484;2023-07-30T11:58:12;0.50;;;0.50;;
4186;SDS011;2107;52.306;10.484;2023-07-30T12:00:39;0.50;;;0.50;;
4186;SDS011;2107;52.306;10.484;2023-07-30T12:03:10;0.50;;;0.50;;
4186;SDS011;2107;52.306;10.484;2023-07-30T12:05:38;0.50;;;0.50;;
4186;SDS011;2107;52.306;10.484;2023-07-30T12:08:13;0.60;;;0.60;;
4186;SDS011;2107;52.306;10.484;2023-07-30T12:10:42;0.40;;;0.40;;
4186;SDS011;2107;52.306;10.484;2023-07-30T12:13:15;0.50;;;0.50;;
4186;SDS011;2107;52.306;10.484;2023-07-30T12:15:43;0.43;;;0.43;;
4186;SDS011;2107;52.306;10.484;2023-07-30T12:18:16;0.50;;;0.50;;
4186;SDS011;2107;52.306;10.484;2023-07-30T12:20:43;0.40;;;0.40;;
4186;SDS011;2107;52.306;10.484;2023-07-30T12:23:11;0.30;;;0.30;;
4186;SDS011;2107;52.306;10.484;2023-07-30T12:25:38;0.30;;;0.30;;
4186;SDS011;2107;52.306;10.484;2023-07-30T12:28:05;0.40;;;0.40;;
4186;SDS011;2107;52.306;10.484;2023-07-30T12:30:32;0.40;;;0.40;;
4186;SDS011;2107;52.306;10.484;2023-07-30T12:33:00;0.40;;;0.40;;
4186;SDS011;2107;52.306;10.484;2023-07-30T12:35:27;0.30;;;0.30;;
4186;SDS011;2107;52.306;10.484;2023-07-30T12:37:54;0.30;;;0.30;;
4186;SDS011;2107;52.306;10.484;2023-07-30T12:40:23;0.40;;;0.40;;
4186;SDS011;2107;52.306;10.484;2023-07-30T12:42:50;0.30;;;0.30;;
4186;SDS011;2107;52.306;10.484;2023-07-30T12:45:17;0.40;;;0.40;;
4186;SDS011;2107;52.306;10.484;2023-07-30T12:47:44;0.40;;;0.40;;
4186;SDS011;2107;52.306;10.484;2023-07-30T12:50:11;0.30;;;0.30;;
4186;SDS011;2107;52.306;10.484;2023-07-30T12:52:38;0.30;;;0.30;;
4186;SDS011;2107;52.306;10.484;2023-07-30T12:55:05;0.30;;;0.30;;
4186;SDS011;2107;52.306;10.484;2023-07-30T12:57:34;0.40;;;0.40;;
4186;SDS011;2107;52.306;10.484;2023-07-30T13:00:01;0.30;;;0.30;;
4186;SDS011;2107;52.306;10.484;2023-07-30T13:02:28;0.33;;;0.33;;
4186;SDS011;2107;52.306;10.484;2023-07-30T13:04:58;0.30;;;0.30;;
4186;SDS011;2107;52.306;10.484;2023-07-30T13:07:25;0.30;;;0.30;;
4186;SDS011;2107;52.306;10.484;2023-07-30T13:10:01;0.30;;;0.30;;
4186;SDS011;2107;52.306;10.484;2023-07-30T13:12:30;0.30;;;0.30;;
4186;SDS011;2107;52.306;10.484;2023-07-30T13:14:58;0.40;;;0.40;;
4186;SDS011;2107;52.306;10.484;2023-07-30T13:17:25;0.30;;;0.30;;
4186;SDS011;2107;52.306;10.484;2023-07-30T13:19:52;0.30;;;0.30;;
4186;SDS011;2107;52.306;10.484;2023-07-30T13:22:18;0.30;;;0.30;;
4186;SDS011;2107;52.306;10.484;2023-07-30T13:24:45;0.40;;;0.40;;
4186;SDS011;2107;52.306;10.484;2023-07-30T13:27:12;0.30;;;0.30;;
4186;SDS011;2107;52.306;10.484;2023-07-30T13:29:39;0.40;;;0.40;;
4186;SDS011;2107;52.306;10.484;2023-07-30T13:32:07;0.30;;;0.30;;
4186;SDS011;2107;52.306;10.484;2023-07-30T13:34:34;0.40;;;0.40;;
4186;SDS011;2107;52.306;10.484;2023-07-30T13:37:01;0.30;;;0.30;;
4186;SDS011;2107;52.306;10.484;2023-07-30T13:39:28;0.30;;;0.30;;
4186;SDS011;2107;52.306;10.484;2023-07-30T13:41:55;0.50;;;0.50;;
4186;SDS011;2107;52.306;10.484;2023-07-30T13:44:22;0.43;;;0.43;;
4186;SDS011;2107;52.306;10.484;2023-07-30T13:46:49;0.40;;;0.40;;
4186;SDS011;2107;52.306;10.484;2023-07-30T13:49:17;0.40;;;0.40;;
4186;SDS011;2107;52.306;10.484;2023-07-30T13:51:44;0.40;;;0.40;;
4186;SDS011;2107;52.306;10.484;2023-07-30T13:54:11;0.50;;;0.50;;
4186;SDS011;2107;52.306;10.484;2023-07-30T13:56:38;0.47;;;0.47;;
4186;SDS011;2107;52.306;10.484;2023-07-30T13:59:05;0.40;;;0.40;;
4186;SDS011;2107;52.306;10.484;2023-07-30T14:01:32;0.30;;;0.30;;
4186;SDS011;2107;52.306;10.484;2023-07-30T14:03:58;0.30;;;0.30;;
4186;SDS011;2107;52.306;10.484;2023-07-30T14:06:27;0.40;;;0.40;;
4186;SDS011;2107;52.306;10.484;2023-07-30T14:08:54;0.40;;;0.40;;
4186;SDS011;2107;52.306;10.484;2023-07-30T14:11:21;0.30;;;0.30;;
4186;SDS011;2107;52.306;10.484;2023-07-30T14:13:48;0.30;;;0.30;;
4186;SDS011;2107;52.306;10.484;2023-07-30T14:16:15;0.30;;;0.30;;
4186;SDS011;2107;52.306;10.484;2023-07-30T14:18:42;0.30;;;0.30;;
4186;SDS011;2107;52.306;10.484;2023-07-30T14:21:08;0.40;;;0.40;;
4186;SDS011;2107;52.306;10.484;2023-07-30T14:23:37;0.30;;;0.30;;
4186;SDS011;2107;52.306;10.484;2023-07-30T14:26:04;0.40;;;0.40;;
4186;SDS011;2107;52.306;10.484;2023-07-30T14:28:31;0.50;;;0.50;;
4186;SDS011;2107;52.306;10.484;2023-07-30T14:30:58;0.40;;;0.40;;
4186;SDS011;2107;52.306;10.484;2023-07-30T14:33:25;0.40;;;0.40;;
4186;SDS011;2107;52.306;10.484;2023-07-30T14:35:52;0.30;;;0.30;;
4186;SDS011;2107;52.306;10.484;2023-07-30T14:38:19;0.50;;;0.50;;
4186;SDS011;2107;52.306;10.484;2023-07-30T14:40:47;0.30;;;0.30;;
4186;SDS011;2107;52.306;10.484;2023-07-30T14:43:14;0.30;;;0.30;;
4186;SDS011;2107;52.306;10.484;2023-07-30T14:45:41;0.30;;;0.30;;
4186;SDS011;2107;52.306;10.484;2023-07-30T14:48:07;0.40;;;0.40;;
4186;SDS011;2107;52.306;10.484;2023-07-30T14:50:34;0.50;;;0.50;;
4186;SDS011;2107;52.306;10.484;2023-07-30T14:53:01;0.50;;;0.50;;
4186;SDS011;2107;52.306;10.484;2023-07-30T14:55:28;0.50;;;0.50;;
4186;SDS011;2107;52.306;10.484;2023-07-30T14:57:56;0.40;;;0.40;;
4186;SDS011;2107;52.306;10.484;2023-07-30T15:00:23;0.50;;;0.50;;
4186;SDS011;2107;52.306;10.484;2023-07-30T15:02:51;0.40;;;0.40;;
4186;SDS011;2107;52.306;10.484;2023-07-30T15:05:18;0.40;;;0.40;;